Fredericksburg, VA (22401)

4:11 PM EST on December 09, 2016 (GMT -0500)
Ridge Pointe | | Change Station

Elev 102 ft 38.32 °N, 77.45 °W | Updated 10 seconds ago

Clear
Clear
37.3 °F
Feels Like 37 °F
N
1.0
Wind Variable Wind from WSW
Gusts 6.0 mph

Today
High -- | Low -- °F
--% Chance of Precip.
Yesterday
High -- | Low -- °F
Precip. -- in
Pressure 30.36 in
Visibility 10.0 miles
Clouds Clear
Windchill 37 °F
Dew Point 15 °F
Humidity 40%
Rainfall 0.00 in
Snow Depth Not available.
7:15 AM 4:49 PM
Waxing Gibbous, 77% visible
METAR KEZF 092055Z AUTO 32011G16KT 10SM CLR 04/M10 A3036 RMK AO2 T00441096
Pressure 30.36 in
Visibility 10.0 miles
Clouds Clear
Windchill 37 °F
Dew Point 15 °F
Humidity 40%
Rainfall 0.00 in
Snow Depth Not available.
7:15 AM 4:49 PM
Waxing Gibbous, 77% visible
METAR KEZF 092055Z AUTO 32011G16KT 10SM CLR 04/M10 A3036 RMK AO2 T00441096

10-Day Weather Forecast

Almanac

Astronomy

Dec. 09, 2016 Rise Set
Actual Time
Civil Twilight
Nautical Twilight
Astronomical Twilight
Moon
Length of Visible Light
Length of Day
Tomorrow will be .
, % of the Moon is Illuminated

Today's Extremes

State Highs State Lows

Community

WunderPhotos

Upload Photos

1,956,517 photos uploaded!

WunderBlog® & News

Nearby

Air Quality

  Air Quality AQ Index Pollutant
Not available.

Snow Depth

Station Depth Elevation

Earthquake Activity

City Distance Mag. Time & Date
Minimum magnitude displayed is 2.5.

Coastal Water Temperatures

Place Temperature

Stations

Nearby Weather Stations

Station Location Temp. Windchill Dew Point Humidity Wind Precip. Elev Updated Type
                   

Watches & Warnings

There are currently no watches in effect.